Time;durP1;ratioP1;P1;durP2;ratioP2;P2;SDS_P1;SDS_P2;PMS_P1;PMS_P2;Temp;Humidity;BMP_temperature;BMP_pressure;BME280_temperature;BME280_humidity;BME280_pressure;Samples;Min_cycle;Max_cycle;Signal;HPM_P1;HPM_P2
2022/06/21 00:00:11;;;;;;;5.25;1.10;;;;;;;19.11;59.03;100209.84;5091275;28;20529;-70
2022/06/21 00:02:39;;;;;;;4.40;1.20;;;;;;;19.05;59.43;100207.56;5086672;28;20048;-72
2022/06/21 00:05:12;;;;;;;2.58;1.13;;;;;;;18.80;59.01;100159.31;5076308;28;20087;-71
2022/06/21 00:07:39;;;;;;;3.67;1.10;;;;;;;19.12;59.01;100214.31;5078652;28;20076;-72
2022/06/21 00:10:10;;;;;;;5.13;0.90;;;;;;;18.81;58.86;100169.50;5073059;28;20154;-70
2022/06/21 00:12:36;;;;;;;5.07;1.30;;;;;;;19.05;58.49;100205.56;5090281;28;20052;-72
2022/06/21 00:15:04;;;;;;;6.88;1.65;;;;;;;19.12;58.38;100208.66;5083596;28;20086;-72
2022/06/21 00:17:31;;;;;;;2.65;1.25;;;;;;;18.99;58.22;100204.13;5087316;28;20090;-71
2022/06/21 00:19:57;;;;;;;3.42;1.00;;;;;;;18.87;58.34;100182.25;5091511;28;20060;-72
2022/06/21 00:22:26;;;;;;;1.30;1.17;;;;;;;18.88;58.49;100188.75;5080147;28;20061;-71
2022/06/21 00:24:54;;;;;;;4.13;0.97;;;;;;;18.93;58.14;100203.50;5086755;28;20131;-72
2022/06/21 00:27:22;;;;;;;2.60;1.38;;;;;;;18.96;58.30;100201.97;5095286;28;20045;-72
2022/06/21 00:29:49;;;;;;;2.50;0.90;;;;;;;18.94;58.25;100191.03;5090122;28;20055;-72
2022/06/21 00:32:19;;;;;;;1.90;0.93;;;;;;;18.89;58.44;100170.59;5079445;28;20045;-71
2022/06/21 00:34:47;;;;;;;2.20;1.15;;;;;;;18.85;58.57;100166.78;5074832;28;20052;-73
2022/06/21 00:37:17;;;;;;;1.77;0.90;;;;;;;18.86;58.65;100174.94;5075789;28;20049;-72
2022/06/21 00:39:44;;;;;;;;;;;;;;;18.93;58.31;100182.84;5075799;28;20083;-73
2022/06/21 00:42:29;;;;;;;1.35;0.75;;;;;;;18.92;58.40;100184.03;5084622;28;19955;-72
2022/06/21 00:45:04;;;;;;;2.92;1.45;;;;;;;18.73;58.27;100152.56;5090569;28;20097;-71
2022/06/21 00:47:42;;;;;;;2.28;0.90;;;;;;;18.88;58.51;100180.25;5077292;28;20049;-71
2022/06/21 00:50:21;;;;;;;4.25;1.65;;;;;;;18.87;58.50;100178.56;5085264;28;20135;-71
2022/06/21 00:52:54;;;;;;;5.75;2.20;;;;;;;18.77;58.77;100168.53;5085794;28;20051;-71
2022/06/21 00:55:36;;;;;;;5.30;1.48;;;;;;;18.78;58.79;100169.34;5074237;28;20049;-71
2022/06/21 00:58:04;;;;;;;5.90;1.38;;;;;;;18.84;59.17;100162.31;5075149;28;20529;-70
2022/06/21 01:01:01;;;;;;;2.58;0.93;;;;;;;18.94;59.00;100168.38;5081721;28;20159;-71
2022/06/21 01:03:36;;;;;;;0.95;0.68;;;;;;;18.91;58.79;100162.59;5086898;28;20131;-71
2022/06/21 01:06:08;;;;;;;3.08;0.90;;;;;;;18.87;58.90;100161.59;5087929;28;20044;-68
2022/06/21 01:08:39;;;;;;;3.90;0.90;;;;;;;18.83;58.67;100150.16;5075067;28;20091;-67
2022/06/21 01:11:14;;;;;;;3.20;0.93;;;;;;;18.39;58.97;100075.28;5089872;28;20093;-68
2022/06/21 01:13:47;;;;;;;2.22;1.20;;;;;;;18.78;58.89;100141.88;5077603;28;20044;-70
2022/06/21 01:16:15;;;;;;;1.63;1.00;;;;;;;18.52;59.14;100094.00;5084370;28;20049;-69
2022/06/21 01:18:44;;;;;;;8.77;1.50;;;;;;;18.68;59.12;100116.81;5087055;28;20082;-69
2022/06/21 01:21:15;;;;;;;4.07;1.00;;;;;;;18.68;59.21;100126.13;5079003;28;20045;-68
2022/06/21 01:23:48;;;;;;;5.50;1.30;;;;;;;18.67;59.56;100140.63;5088299;28;20041;-68
2022/06/21 01:26:35;;;;;;;5.63;1.30;;;;;;;18.60;59.55;100123.38;5114103;28;20519;-69
2022/06/21 01:29:05;;;;;;;3.50;1.23;;;;;;;18.61;59.62;100114.53;5086107;28;20138;-69
2022/06/21 01:31:33;;;;;;;3.97;1.48;;;;;;;18.15;59.79;100062.69;5078415;28;20095;-71
2022/06/21 01:34:00;;;;;;;2.00;0.88;;;;;;;18.31;59.78;100076.19;5090612;28;20136;-72
2022/06/21 01:36:35;;;;;;;2.15;1.13;;;;;;;18.49;59.89;100114.47;5080893;28;20053;-71
2022/06/21 01:39:10;;;;;;;2.40;1.33;;;;;;;18.54;59.72;100110.63;5090170;28;20456;-68
2022/06/21 01:41:44;;;;;;;2.75;1.50;;;;;;;18.49;59.45;100097.50;5074262;28;20048;-69
2022/06/21 01:44:16;;;;;;;1.70;1.00;;;;;;;18.60;59.52;100114.91;5077803;28;20115;-68
2022/06/21 01:46:44;;;;;;;2.72;1.00;;;;;;;18.08;59.56;100028.47;5079359;28;20044;-70
2022/06/21 01:49:20;;;;;;;1.30;0.93;;;;;;;18.44;59.59;100097.72;5079335;28;20055;-70
2022/06/21 01:51:54;;;;;;;2.45;0.90;;;;;;;18.20;59.93;100068.13;5085274;28;20075;-69
2022/06/21 01:54:25;;;;;;;5.53;1.42;;;;;;;18.50;59.79;100113.31;5087417;28;20075;-70
2022/06/21 01:56:52;;;;;;;6.05;0.93;;;;;;;18.46;59.85;100113.19;5074049;28;20067;-69
2022/06/21 01:59:30;;;;;;;2.13;0.80;;;;;;;18.43;59.80;100113.03;5072932;28;20072;-68
2022/06/21 02:02:05;;;;;;;3.20;1.10;;;;;;;18.44;59.93;100106.19;5081656;28;20136;-68
2022/06/21 02:04:39;;;;;;;4.88;0.75;;;;;;;18.45;60.09;100107.84;5083405;28;20068;-69
2022/06/21 02:07:10;;;;;;;1.10;0.50;;;;;;;18.11;60.08;100061.72;5074740;28;20049;-70
2022/06/21 02:09:46;;;;;;;5.10;1.27;;;;;;;18.33;60.05;100104.97;5079873;28;20499;-70
2022/06/21 02:12:14;;;;;;;3.13;0.93;;;;;;;18.37;60.02;100108.75;5087111;28;20041;-69
2022/06/21 02:14:48;;;;;;;2.35;0.88;;;;;;;18.32;60.07;100095.63;5074384;28;20134;-69
2022/06/21 02:17:24;;;;;;;1.98;0.82;;;;;;;18.38;60.09;100108.41;5074917;28;20059;-68
2022/06/21 02:20:21;;;;;;;2.28;0.98;;;;;;;18.38;60.13;100099.09;5073953;28;20098;-69
2022/06/21 02:22:48;;;;;;;2.45;1.13;;;;;;;18.34;60.22;100104.59;5086643;28;20087;-69
2022/06/21 02:25:21;;;;;;;3.20;1.20;;;;;;;18.32;60.17;100100.47;5093656;28;20168;-70
2022/06/21 02:27:50;;;;;;;2.28;0.90;;;;;;;18.32;60.59;100103.28;5078764;28;20072;-69
2022/06/21 02:30:22;;;;;;;1.40;0.93;;;;;;;18.01;60.32;100050.81;5087560;28;20571;-70
2022/06/21 02:32:52;;;;;;;2.88;0.90;;;;;;;18.02;60.49;100031.84;5074139;28;20084;-70
2022/06/21 02:35:21;;;;;;;;;;;;;;;18.26;60.30;100087.72;5073773;28;20127;-69
2022/06/21 02:37:51;;;;;;;3.50;1.63;;;;;;;18.30;60.13;100088.69;5073876;28;20445;-69
2022/06/21 02:40:28;;;;;;;4.75;3.50;;;;;;;18.20;60.02;100075.78;5072552;28;20053;-69
2022/06/21 02:43:01;;;;;;;4.78;3.45;;;;;;;18.16;60.25;100064.34;5074013;28;20044;-70
2022/06/21 02:45:50;;;;;;;4.00;3.67;;;;;;;18.24;60.54;100088.88;5074178;28;20044;-69
2022/06/21 02:48:26;;;;;;;8.93;3.40;;;;;;;17.65;60.53;99984.41;5076075;28;20069;-68
2022/06/21 02:51:02;;;;;;;3.63;3.28;;;;;;;18.23;60.80;100073.09;5082392;28;20538;-68
2022/06/21 02:53:38;;;;;;;4.20;3.80;;;;;;;18.31;60.98;100079.03;5073179;28;20387;-69
2022/06/21 02:56:30;;;;;;;10.40;7.78;;;;;;;18.38;61.01;100096.25;5073759;28;20075;-69
2022/06/21 02:59:01;;;;;;;11.65;10.77;;;;;;;18.03;61.19;100011.75;5076197;28;20076;-69
2022/06/21 03:01:34;;;;;;;10.00;9.30;;;;;;;18.44;61.13;100075.94;5078661;28;20242;-69
2022/06/21 03:04:01;;;;;;;3.55;1.10;;;;;;;18.45;60.73;100057.78;5083055;28;20056;-68
2022/06/21 03:06:31;;;;;;;4.57;2.08;;;;;;;18.49;60.87;100063.56;5085320;28;20101;-68
2022/06/21 03:09:06;;;;;;;3.10;1.15;;;;;;;18.51;60.89;100058.41;5080402;28;20044;-71
2022/06/21 03:11:45;;;;;;;5.03;1.00;;;;;;;18.50;60.92;100051.09;5084294;28;20522;-68
2022/06/21 03:14:16;;;;;;;3.88;1.25;;;;;;;18.55;60.75;100048.06;5087543;28;20048;-69
2022/06/21 03:16:45;;;;;;;1.27;0.77;;;;;;;18.43;61.54;100046.00;5077048;28;20483;-69
2022/06/21 03:19:22;;;;;;;5.35;1.77;;;;;;;18.47;61.33;100052.63;5072105;28;20495;-68
2022/06/21 03:21:49;;;;;;;5.00;1.55;;;;;;;18.69;60.84;100059.88;5085230;28;20099;-69
2022/06/21 03:24:20;;;;;;;2.75;0.98;;;;;;;18.76;60.77;100033.09;5083662;28;20080;-68
2022/06/21 03:26:54;;;;;;;3.53;1.67;;;;;;;18.66;60.92;100004.03;5090244;28;20059;-67
2022/06/21 03:29:23;;;;;;;1.25;0.75;;;;;;;19.00;60.39;100038.81;5076126;28;20127;-69
2022/06/21 03:31:50;;;;;;;8.90;1.38;;;;;;;18.88;60.60;100039.63;5081038;28;20084;-69
2022/06/21 03:34:20;;;;;;;1.10;0.80;;;;;;;18.91;60.79;100052.25;5076678;28;20143;-69
2022/06/21 03:36:49;;;;;;;1.73;0.95;;;;;;;18.58;60.57;100007.78;5088785;28;20494;-69
2022/06/21 03:41:42;;;;;;;2.88;1.58;;;;;;;18.82;60.72;100054.31;5092254;28;20044;-69
2022/06/21 03:42:14;;;;;;;5.70;1.20;;;;;;;18.84;61.09;100055.63;5077409;28;20049;-69
2022/06/21 03:44:56;;;;;;;3.53;1.60;;;;;;;18.77;61.35;100066.69;5075885;28;20098;-69
2022/06/21 03:47:39;;;;;;;2.40;1.30;;;;;;;18.77;60.71;100037.56;5083465;28;20076;-69
2022/06/21 03:50:07;;;;;;;6.40;1.50;;;;;;;18.98;61.10;100052.50;5081257;28;20110;-70
2022/06/21 03:53:06;;;;;;;1.75;0.85;;;;;;;18.99;61.08;100062.63;5076324;28;20121;-69
2022/06/21 03:55:53;;;;;;;4.28;1.27;;;;;;;18.83;61.04;100044.66;5082841;28;20048;-70
2022/06/21 03:58:48;;;;;;;6.97;1.55;;;;;;;18.85;61.40;100067.78;5079236;28;20759;-70
2022/06/21 04:01:19;;;;;;;4.93;1.38;;;;;;;18.87;61.46;100063.44;5085234;28;20090;-70
2022/06/21 04:03:50;;;;;;;4.53;1.73;;;;;;;19.16;60.69;100068.09;5093294;28;20127;-69
2022/06/21 04:06:49;;;;;;;8.35;2.08;;;;;;;19.32;60.80;100058.94;5092129;28;20117;-70
2022/06/21 04:09:47;;;;;;;6.33;1.70;;;;;;;19.00;60.78;100035.97;5084697;28;20079;-71
2022/06/21 04:12:34;;;;;;;7.43;1.48;;;;;;;19.17;60.65;100049.09;5079254;28;20087;-71
2022/06/21 04:15:11;;;;;;;5.35;1.30;;;;;;;19.09;60.28;100038.72;5082395;28;20065;-71
2022/06/21 04:17:48;;;;;;;6.97;1.45;;;;;;;19.26;60.31;100049.03;5075353;28;20482;-72
2022/06/21 04:20:22;;;;;;;2.65;1.40;;;;;;;19.38;60.14;100054.69;5077218;28;20044;-72
2022/06/21 04:22:57;;;;;;;5.30;1.60;;;;;;;19.46;60.42;100055.78;5091651;28;20075;-71
2022/06/21 04:25:39;;;;;;;4.63;1.48;;;;;;;19.48;60.10;100048.56;5095830;28;20110;-72
2022/06/21 04:28:06;;;;;;;7.30;1.98;;;;;;;19.24;60.57;100052.19;5092068;28;20040;-72
2022/06/21 04:30:40;;;;;;;3.67;1.38;;;;;;;18.69;61.26;99992.00;5080096;28;20101;-72
2022/06/21 04:33:20;;;;;;;4.03;1.73;;;;;;;19.01;60.95;100046.16;5082520;28;20092;-71
2022/06/21 04:36:08;;;;;;;7.78;1.50;;;;;;;18.78;61.47;100040.06;5093547;28;20044;-72
2022/06/21 04:38:50;;;;;;;3.90;1.65;;;;;;;18.78;61.47;100045.72;5090471;28;20083;-72
2022/06/21 04:41:30;;;;;;;3.45;1.58;;;;;;;18.92;61.28;100045.41;5085988;28;20075;-73
2022/06/21 04:44:02;;;;;;;3.03;1.60;;;;;;;18.60;61.18;100010.28;5085023;28;20044;-71
2022/06/21 04:46:50;;;;;;;6.95;1.90;;;;;;;18.87;61.09;100048.44;5082027;28;20080;-71
2022/06/21 04:49:32;;;;;;;8.52;2.47;;;;;;;18.97;61.51;100041.50;5085010;28;20068;-71
2022/06/21 04:52:10;;;;;;;4.45;1.90;;;;;;;18.97;61.53;100045.16;5085115;28;20071;-72
2022/06/21 04:54:39;;;;;;;2.97;1.83;;;;;;;19.05;61.41;100044.25;5091372;28;20487;-69
2022/06/21 04:57:11;;;;;;;5.35;1.73;;;;;;;18.98;61.62;100037.53;5092353;28;20047;-70
2022/06/21 04:59:44;;;;;;;4.28;1.98;;;;;;;18.64;61.65;100006.38;5086323;28;20048;-70
2022/06/21 05:02:22;;;;;;;5.25;1.83;;;;;;;18.52;61.61;99980.06;5078194;28;20057;-69
2022/06/21 05:04:57;;;;;;;3.50;1.73;;;;;;;18.99;61.71;100051.31;5090726;28;20056;-68
2022/06/21 05:07:29;;;;;;;7.28;2.67;;;;;;;18.92;61.49;100034.09;5087623;28;20507;-69
2022/06/21 05:09:57;;;;;;;4.80;3.10;;;;;;;19.14;61.60;100059.16;5090071;28;20079;-69
2022/06/21 05:12:24;;;;;;;4.32;1.92;;;;;;;18.96;62.14;100063.31;5079626;28;20080;-69
2022/06/21 05:14:57;;;;;;;8.07;2.40;;;;;;;18.73;62.11;100020.47;5073206;28;20048;-69
2022/06/21 05:17:25;;;;;;;3.85;2.00;;;;;;;19.12;61.77;100061.50;5079740;28;20495;-68
2022/06/21 05:19:57;;;;;;;7.88;2.75;;;;;;;18.95;61.34;100019.25;5082061;28;20083;-69
2022/06/21 05:22:30;;;;;;;6.10;2.63;;;;;;;19.23;61.31;100058.22;5087353;28;20052;-68
2022/06/21 05:24:59;;;;;;;4.25;2.08;;;;;;;19.32;61.27;100061.78;5076060;28;20101;-71
2022/06/21 05:27:47;;;;;;;4.13;2.28;;;;;;;19.14;60.90;100035.66;5079916;28;20498;-68
2022/06/21 05:30:29;;;;;;;5.95;2.63;;;;;;;18.89;60.87;99975.38;5078559;28;20098;-69
2022/06/21 05:33:00;;;;;;;7.15;2.15;;;;;;;19.39;60.95;100045.03;5085786;28;20129;-70
2022/06/21 05:35:33;;;;;;;5.45;3.58;;;;;;;19.35;60.98;100069.53;5077607;28;20098;-68
2022/06/21 05:38:06;;;;;;;5.88;2.92;;;;;;;19.20;60.99;100054.06;5083094;28;20060;-69
2022/06/21 05:40:37;;;;;;;9.02;3.10;;;;;;;19.12;61.06;100053.00;5087080;28;20491;-68
2022/06/21 05:43:11;;;;;;;2.70;1.85;;;;;;;19.05;61.31;100061.25;5079030;28;20100;-70
2022/06/21 05:45:41;;;;;;;2.55;1.88;;;;;;;18.93;61.19;100059.19;5073611;28;20056;-69
2022/06/21 05:48:17;;;;;;;8.77;3.00;;;;;;;18.94;61.63;100069.34;5078179;28;20105;-69
2022/06/21 05:50:44;;;;;;;7.05;2.33;;;;;;;18.91;61.87;100072.06;5076512;28;20106;-70
2022/06/21 05:53:19;;;;;;;6.13;2.63;;;;;;;19.01;61.79;100056.59;5076085;28;20079;-70
2022/06/21 05:55:48;;;;;;;7.13;3.13;;;;;;;19.04;61.59;100061.56;5081699;28;20102;-70
2022/06/21 05:58:23;;;;;;;4.20;2.42;;;;;;;18.92;61.53;100062.38;5075105;28;20075;-69
2022/06/21 06:00:59;;;;;;;10.07;3.58;;;;;;;18.53;61.70;100001.50;5081630;28;20091;-70
2022/06/21 06:03:29;;;;;;;5.50;2.15;;;;;;;18.98;61.44;100071.47;5085744;28;20105;-70
2022/06/21 06:06:02;;;;;;;4.88;2.00;;;;;;;19.04;61.39;100055.91;5083720;28;20048;-70
2022/06/21 06:08:34;;;;;;;3.80;1.63;;;;;;;18.92;61.57;100049.06;5082371;28;20480;-69
2022/06/21 06:11:07;;;;;;;6.97;2.70;;;;;;;18.88;61.90;100062.25;5087821;28;20470;-69
2022/06/21 06:13:39;;;;;;;3.63;2.20;;;;;;;18.28;62.01;100006.22;5084888;28;20120;-70
2022/06/21 06:16:16;;;;;;;12.07;3.13;;;;;;;18.62;62.53;100062.47;5078454;28;20444;-69
2022/06/21 06:18:53;;;;;;;5.50;2.30;;;;;;;18.10;62.42;99995.06;5077663;28;20557;-67
2022/06/21 06:21:26;;;;;;;6.03;2.72;;;;;;;18.57;62.40;100068.34;5080316;28;20083;-70
2022/06/21 06:23:55;;;;;;;8.80;2.15;;;;;;;18.48;62.31;100081.72;5081375;28;20075;-67
2022/06/21 06:26:30;;;;;;;6.50;2.67;;;;;;;18.39;62.23;100061.16;5093087;28;20537;-68
2022/06/21 06:29:06;;;;;;;3.58;2.03;;;;;;;18.43;62.52;100067.81;5074542;28;20136;-67
2022/06/21 06:31:56;;;;;;;3.70;1.90;;;;;;;18.53;62.40;100078.69;5079427;28;20538;-69
2022/06/21 06:34:28;;;;;;;6.13;2.00;;;;;;;18.22;62.46;100016.91;5072983;28;20080;-67
2022/06/21 06:37:00;;;;;;;5.30;1.95;;;;;;;18.42;62.76;100066.13;5079066;28;20093;-68
2022/06/21 06:39:30;;;;;;;7.22;2.30;;;;;;;18.50;62.33;100068.06;5074986;28;20048;-67
2022/06/21 06:42:09;;;;;;;;;;;;;;;18.46;62.05;100078.41;5077814;28;20807;-68
2022/06/21 06:44:58;;;;;;;9.82;2.30;;;;;;;18.32;62.29;100060.88;5071957;28;20006;-68
2022/06/21 06:47:40;;;;;;;9.05;2.45;;;;;;;18.25;62.56;100064.25;5072520;28;20084;-68
2022/06/21 06:50:13;;;;;;;9.35;2.47;;;;;;;18.21;62.75;100072.59;5072543;28;20462;-68
2022/06/21 06:52:51;;;;;;;5.95;2.25;;;;;;;18.30;62.71;100060.44;5075474;28;20052;-68
2022/06/21 06:55:34;;;;;;;6.43;2.65;;;;;;;18.46;62.74;100055.78;5070773;28;20449;-69
2022/06/21 06:58:30;;;;;;;5.05;2.33;;;;;;;18.55;62.21;100045.22;5071589;28;20048;-68
2022/06/21 07:01:05;;;;;;;7.18;2.38;;;;;;;18.87;62.10;100077.56;5076917;28;20586;-69
2022/06/21 07:03:41;;;;;;;9.63;2.75;;;;;;;18.82;62.00;100074.13;5086597;28;20119;-68
2022/06/21 07:06:40;;;;;;;3.38;2.08;;;;;;;18.74;62.27;100072.22;5095754;28;20083;-68
2022/06/21 07:09:27;;;;;;;5.90;2.07;;;;;;;18.78;62.11;100078.84;5098855;28;20123;-69
2022/06/21 07:12:02;;;;;;;11.65;2.90;;;;;;;18.63;62.34;100089.59;5070484;28;20127;-68
2022/06/21 07:14:29;;;;;;;4.35;1.98;;;;;;;18.75;62.33;100079.53;5070500;28;20144;-69
2022/06/21 07:17:18;;;;;;;6.60;1.83;;;;;;;18.26;62.16;100011.41;5079297;28;20105;-69
2022/06/21 07:19:45;;;;;;;6.43;1.70;;;;;;;18.00;61.95;99976.53;5072331;28;20119;-68
2022/06/21 07:22:19;;;;;;;11.23;2.00;;;;;;;18.63;62.21;100061.31;5089080;28;20123;-68
2022/06/21 07:25:02;;;;;;;2.42;1.48;;;;;;;18.60;62.06;100035.72;5078997;28;20060;-68
2022/06/21 07:27:34;;;;;;;4.28;1.80;;;;;;;18.76;61.77;100061.38;5077914;28;20114;-68
2022/06/21 07:30:08;;;;;;;4.93;2.20;;;;;;;18.85;61.70;100073.44;5083643;28;20139;-68
2022/06/21 07:32:41;;;;;;;4.30;1.58;;;;;;;18.75;61.70;100079.53;5079777;28;20139;-67
2022/06/21 07:35:15;;;;;;;5.03;2.38;;;;;;;18.81;61.84;100070.47;5091317;28;20086;-69
2022/06/21 07:37:54;;;;;;;3.95;1.70;;;;;;;18.95;61.58;100073.00;5088783;28;20109;-68
2022/06/21 07:40:28;;;;;;;5.65;1.50;;;;;;;19.16;60.94;100078.59;5091990;28;20152;-68
2022/06/21 07:43:01;;;;;;;5.70;1.75;;;;;;;19.23;60.59;100081.69;5084493;28;20134;-68
2022/06/21 07:45:37;;;;;;;8.48;1.92;;;;;;;19.16;60.87;100078.59;5090138;28;20130;-67
2022/06/21 07:48:13;;;;;;;10.80;2.35;;;;;;;18.88;60.39;100033.13;5088406;28;20136;-68
2022/06/21 07:50:47;;;;;;;3.38;1.88;;;;;;;19.05;60.50;100060.41;5082186;28;20139;-68
2022/06/21 07:53:24;;;;;;;6.68;2.00;;;;;;;19.16;60.42;100078.59;5081504;28;20499;-68
2022/06/21 07:56:00;;;;;;;4.80;1.98;;;;;;;19.32;60.45;100070.28;5080685;28;20582;-67
2022/06/21 07:58:30;;;;;;;5.32;1.50;;;;;;;19.41;60.04;100066.13;5094886;28;20580;-69
2022/06/21 08:06:52;;;;;;;3.88;1.60;;;;;;;19.02;59.81;100021.50;5083352;28;20051;-68
2022/06/21 08:09:26;;;;;;;5.82;1.77;;;;;;;19.11;59.79;100071.16;5103883;28;20136;-69
2022/06/21 08:12:00;;;;;;;5.25;1.90;;;;;;;19.09;59.88;100050.88;5091669;28;20044;-68
2022/06/21 08:14:32;;;;;;;7.40;1.75;;;;;;;19.30;59.58;100058.47;5087892;28;20048;-68
2022/06/21 08:17:08;;;;;;;8.30;1.85;;;;;;;19.50;59.53;100070.88;5098385;28;20139;-68
2022/06/21 08:19:57;;;;;;;4.63;1.45;;;;;;;19.24;59.71;100057.84;5081152;28;20098;-68
2022/06/21 08:22:49;;;;;;;4.70;2.28;;;;;;;19.46;59.43;100067.91;5093582;28;20102;-68
2022/06/21 08:25:33;;;;;;;4.90;1.45;;;;;;;19.08;59.51;99991.81;5104277;28;20513;-68
2022/06/21 08:28:18;;;;;;;4.00;1.65;;;;;;;19.68;58.99;100074.34;5087151;28;20054;-68
2022/06/21 08:30:54;;;;;;;8.65;1.33;;;;;;;19.76;58.86;100079.03;5093575;28;20130;-68
2022/06/21 08:33:34;;;;;;;4.18;1.42;;;;;;;19.68;58.41;100049.66;5085871;28;20156;-68
2022/06/21 08:36:16;;;;;;;5.03;1.60;;;;;;;19.68;58.62;100061.00;5089874;28;20103;-68
2022/06/21 08:38:58;;;;;;;10.68;1.80;;;;;;;19.82;58.40;100071.97;5090949;28;20520;-69
2022/06/21 08:41:52;;;;;;;2.97;1.73;;;;;;;19.85;58.36;100074.09;5086492;28;20169;-69
2022/06/21 08:44:44;;;;;;;3.65;1.50;;;;;;;19.86;58.42;100067.25;5091991;28;20056;-67
2022/06/21 08:47:52;;;;;;;3.20;1.40;;;;;;;19.91;58.23;100067.00;5087103;28;20076;-69
2022/06/21 08:50:41;;;;;;;9.00;1.77;;;;;;;19.74;58.16;100019.09;5063461;28;20511;-68
2022/06/21 08:53:30;;;;;;;4.85;1.63;;;;;;;20.58;57.81;100067.47;5088160;28;20080;-68
2022/06/21 08:56:19;;;;;;;5.07;1.20;;;;;;;21.02;57.21;100064.69;5097363;28;20082;-68
2022/06/21 08:59:21;;;;;;;4.53;1.30;;;;;;;21.37;56.10;100052.66;5087527;28;20082;-68
2022/06/21 09:02:04;;;;;;;2.88;1.38;;;;;;;21.88;56.12;100058.41;5080497;28;20134;-68
2022/06/21 09:04:57;;;;;;;3.42;1.23;;;;;;;21.51;55.41;100062.41;5081742;28;20071;-68
2022/06/21 09:07:45;;;;;;;4.68;1.55;;;;;;;21.20;55.21;100054.66;5081884;28;20056;-68
2022/06/21 09:10:16;;;;;;;5.55;1.17;;;;;;;21.66;54.93;100048.56;5088094;28;20036;-68
2022/06/21 09:12:58;;;;;;;6.22;1.45;;;;;;;21.87;53.81;100037.69;5090432;28;20173;-68
2022/06/21 09:15:31;;;;;;;8.02;2.40;;;;;;;22.29;53.66;100045.63;5073992;28;20130;-69
2022/06/21 09:18:00;;;;;;;2.95;1.00;;;;;;;22.67;52.74;100056.19;5082959;28;20142;-69
2022/06/21 09:20:38;;;;;;;4.40;1.73;;;;;;;22.68;52.66;100055.00;5091952;28;20562;-68
2022/06/21 09:23:50;;;;;;;3.90;1.10;;;;;;;22.33;52.62;100045.72;5079462;28;20517;-68
2022/06/21 09:26:39;;;;;;;6.68;1.25;;;;;;;21.91;52.37;100052.81;5072829;28;20091;-69
2022/06/21 09:29:27;;;;;;;2.90;1.33;;;;;;;21.71;52.55;100051.13;5083643;28;20044;-68
2022/06/21 09:32:15;;;;;;;6.20;2.20;;;;;;;21.38;52.92;100054.34;5078834;28;20090;-68
2022/06/21 09:34:50;;;;;;;6.07;1.15;;;;;;;21.07;53.38;100067.28;5090106;28;20449;-67
2022/06/21 09:37:51;;;;;;;3.83;1.15;;;;;;;20.64;53.71;100076.56;5091971;28;20522;-69
2022/06/21 09:40:24;;;;;;;4.35;1.08;;;;;;;20.24;54.47;100068.84;5078262;28;20084;-67
2022/06/21 09:43:15;;;;;;;8.80;1.58;;;;;;;19.99;55.27;100077.38;5073612;28;20502;-68
2022/06/21 09:45:42;;;;;;;1.95;1.20;;;;;;;19.87;56.14;100083.09;5080135;28;20082;-68
2022/06/21 09:48:15;;;;;;;9.75;2.05;;;;;;;19.78;56.65;100082.38;5080029;28;20076;-68
2022/06/21 09:51:00;;;;;;;8.98;2.08;;;;;;;19.74;56.96;100078.59;5075770;28;20508;-68
2022/06/21 09:53:39;;;;;;;7.10;1.48;;;;;;;19.58;56.92;100058.59;5075327;28;20056;-68
2022/06/21 09:56:11;;;;;;;1.60;1.15;;;;;;;19.71;56.99;100084.97;5083567;28;20049;-67
2022/06/21 09:58:51;;;;;;;3.63;1.48;;;;;;;19.21;56.90;99990.59;5082498;28;20072;-66
2022/06/21 10:01:39;;;;;;;7.15;1.77;;;;;;;19.73;56.65;100063.59;5083465;28;20109;-68
2022/06/21 10:04:32;;;;;;;2.65;1.40;;;;;;;19.88;56.64;100084.72;5084419;28;20055;-68
2022/06/21 10:07:23;;;;;;;7.35;1.80;;;;;;;19.79;56.56;100076.31;5074291;28;20055;-68
2022/06/21 10:10:11;;;;;;;5.85;1.30;;;;;;;19.73;57.00;100082.63;5084100;28;20135;-67
2022/06/21 10:12:58;;;;;;;2.92;1.20;;;;;;;19.95;57.32;100082.13;5087626;28;20055;-68
2022/06/21 10:15:35;;;;;;;2.28;1.00;;;;;;;20.13;57.27;100072.16;5040824;28;20166;-69
2022/06/21 10:18:29;;;;;;;5.45;1.60;;;;;;;20.42;57.20;100070.22;5074473;28;20053;-69
2022/06/21 10:21:02;;;;;;;10.90;1.75;;;;;;;20.75;57.12;100058.69;5070809;28;20076;-69
2022/06/21 10:24:00;;;;;;;3.45;1.80;;;;;;;20.95;57.05;100058.81;5076244;28;20590;-69
2022/06/21 10:26:45;;;;;;;2.78;1.48;;;;;;;21.04;56.83;100071.66;5079779;28;20171;-69
2022/06/21 10:29:36;;;;;;;16.95;6.97;;;;;;;20.97;56.81;100071.47;5078986;28;20466;-68
2022/06/21 10:32:22;;;;;;;4.30;1.77;;;;;;;20.98;57.39;100075.94;5079667;28;20062;-68
2022/06/21 10:35:27;;;;;;;8.20;2.05;;;;;;;21.20;57.36;100053.84;5081399;28;20056;-68
2022/06/21 10:38:19;;;;;;;7.68;1.77;;;;;;;21.45;57.21;100051.69;5077606;28;20123;-68
2022/06/21 10:41:07;;;;;;;3.38;1.65;;;;;;;21.32;57.49;100050.91;5082269;28;20131;-68
2022/06/21 10:43:52;;;;;;;7.63;1.73;;;;;;;21.32;57.46;100050.09;5082701;28;20459;-68
2022/06/21 10:46:26;;;;;;;4.97;1.98;;;;;;;21.46;57.17;100041.97;5084503;28;20146;-68
2022/06/21 10:49:12;;;;;;;7.72;1.60;;;;;;;21.53;57.50;100039.28;5075998;28;20059;-68
2022/06/21 10:51:59;;;;;;;6.40;1.60;;;;;;;21.51;56.95;100039.69;5076536;28;20056;-68
2022/06/21 10:54:45;;;;;;;2.35;1.38;;;;;;;21.59;56.88;100042.69;5074203;28;20072;-68
2022/06/21 10:57:47;;;;;;;6.25;1.50;;;;;;;21.88;56.14;100038.53;5074059;28;20139;-69
2022/06/21 11:03:33;;;;;;;4.18;1.00;;;;;;;21.56;55.89;100037.75;5070842;28;20084;-69
2022/06/21 11:06:19;;;;;;;3.13;1.13;;;;;;;21.21;55.61;99998.69;5074955;28;20506;-68
2022/06/21 11:09:05;;;;;;;5.80;1.17;;;;;;;21.44;55.61;100041.50;5081273;28;20106;-69
2022/06/21 11:11:38;;;;;;;4.13;1.30;;;;;;;21.36;55.55;100046.16;5087411;28;20067;-68
2022/06/21 11:14:45;;;;;;;1.85;0.82;;;;;;;21.21;55.68;100041.28;5075200;28;20052;-68
2022/06/21 11:17:20;;;;;;;12.73;4.82;;;;;;;21.35;55.43;100040.88;5071751;28;20570;-69
2022/06/21 11:20:08;;;;;;;3.28;1.00;;;;;;;21.53;54.96;100053.50;5076004;28;20103;-68
2022/06/21 11:22:57;;;;;;;4.70;1.52;;;;;;;21.46;54.62;100005.84;5091474;28;20134;-68
2022/06/21 11:25:52;;;;;;;4.63;1.38;;;;;;;21.56;54.30;99992.28;5091245;28;20083;-69
2022/06/21 11:28:39;;;;;;;3.83;1.38;;;;;;;21.94;53.81;100011.47;5091398;28;20134;-69
2022/06/21 11:31:33;;;;;;;3.90;1.27;;;;;;;22.24;53.74;100035.34;5078091;28;20114;-68
2022/06/21 11:34:18;;;;;;;5.20;1.63;;;;;;;22.40;53.44;100035.28;5084395;28;20559;-68
2022/06/21 11:36:54;;;;;;;7.70;2.50;;;;;;;22.69;53.00;100042.41;5071108;28;20065;-67
2022/06/21 11:39:40;;;;;;;3.38;1.70;;;;;;;23.14;52.89;100034.34;5071072;28;20494;-68
2022/06/21 11:42:32;;;;;;;5.88;2.30;;;;;;;23.68;52.40;100030.44;5071130;28;20475;-69
2022/06/21 11:45:21;;;;;;;2.78;1.15;;;;;;;24.13;51.43;100034.41;5080549;28;20048;-69
2022/06/21 11:47:50;;;;;;;6.30;1.73;;;;;;;24.54;50.55;100043.16;5073972;28;20456;-68
2022/06/21 11:50:24;;;;;;;7.13;1.90;;;;;;;24.50;49.88;100037.41;5071350;28;20147;-68
2022/06/21 11:52:54;;;;;;;9.23;1.58;;;;;;;24.36;49.90;100038.00;5084697;28;20563;-68
2022/06/21 11:55:21;;;;;;;2.30;1.40;;;;;;;24.36;49.00;100038.00;5092325;28;20071;-69
2022/06/21 11:58:09;;;;;;;7.38;1.38;;;;;;;24.15;49.28;100017.72;5091977;28;20130;-68
2022/06/21 12:00:52;;;;;;;3.08;1.27;;;;;;;23.86;49.44;100014.47;5078103;28;20183;-68
2022/06/21 12:03:43;;;;;;;3.53;1.30;;;;;;;23.75;49.76;100016.31;5074021;28;20135;-68
2022/06/21 12:06:16;;;;;;;5.38;1.63;;;;;;;23.22;50.12;99972.66;5088379;28;20139;-69
2022/06/21 12:09:36;;;;;;;4.07;1.30;;;;;;;23.18;50.27;100021.03;5072003;28;20044;-69
2022/06/21 12:12:31;;;;;;;4.72;1.70;;;;;;;23.17;50.05;100022.22;5061692;28;20424;-68
2022/06/21 12:15:19;;;;;;;3.70;1.45;;;;;;;23.06;50.35;100016.31;5079625;28;20036;-68
2022/06/21 12:17:51;;;;;;;1.98;1.10;;;;;;;23.09;50.04;100015.56;5081804;28;20044;-68
2022/06/21 12:20:24;;;;;;;3.00;0.90;;;;;;;22.63;49.75;99969.06;5074860;28;20068;-68
2022/06/21 12:23:02;;;;;;;2.28;1.00;;;;;;;23.02;50.14;100015.44;5075137;28;20044;-68
2022/06/21 12:25:29;;;;;;;3.17;0.90;;;;;;;23.22;49.60;100019.06;5075569;28;20793;-70